Longford, Kansas
Current Conditions -  °F | °C
As of 4:32 AM on Saturday 25 Oct 2014 (Local Time) from KSLN Reporting Station
Haze Haze  
Wind Chill: 56°   Ceiling: Unl
Heat Index: 56°   Visibility: 4mi
Dew Point: 54°   Wind: 3mph
Humidity: 93%   Direction: 200°SSW
Pressure: 30.03"   Gusts: NA
Location:  39.17°N, 97.33°W
Report Text: KSLN 250932Z AUTO 20003KT 4SM BR CLR 13/12 A3003 RMK AO2 T01330122
Loading
Personal Weather Stations






























Interactive Weather Map
Tropical Storm Tracking
New forecast layout! Learn more

10-Day Weather Forecast

Advertisements
Track Severe Weather on mobile